Terminal Aerodrome Forecast
Issued by NWS

Home | Current Version | Previous Version | Graphics & Text | Print | Product List | Glossary On
Versions: 1 2 3 4 5 6 7 8 9 10 11 12 13 14 15 16 17
000
FTUS43 KBIS 281422 AAA
TAFJMS
TAF AMD
KJMS 281422Z 2814/2912 31015G23KT P6SM SCT070
     FM281800 32023G35KT P6SM FEW050 SCT080
     FM282000 32025G35KT P6SM VCTS SCT090CB
     FM290000 33021G32KT P6SM VCSH BKN090
     FM290200 33014G22KT P6SM BKN090
     FM291100 32015G24KT P6SM BKN030=

USA.gov is the U.S. government's official web portal to all federal, state and local government web resources and services.